sensor_id;sensor_type;location;lat;lon;timestamp;temperature;humidity
76567;DHT22;65428;53.194;6.132;2023-06-10T00:01:41;14.80;99.90
76567;DHT22;65428;53.194;6.132;2023-06-10T00:04:08;14.80;99.90
76567;DHT22;65428;53.194;6.132;2023-06-10T00:06:34;14.70;99.90
76567;DHT22;65428;53.194;6.132;2023-06-10T00:09:04;14.60;99.90
76567;DHT22;65428;53.194;6.132;2023-06-10T00:11:31;14.60;99.90
76567;DHT22;65428;53.194;6.132;2023-06-10T00:13:57;14.60;99.90
76567;DHT22;65428;53.194;6.132;2023-06-10T00:16:22;14.60;99.90
76567;DHT22;65428;53.194;6.132;2023-06-10T00:18:48;14.50;99.90
76567;DHT22;65428;53.194;6.132;2023-06-10T00:21:16;14.50;99.90
76567;DHT22;65428;53.194;6.132;2023-06-10T00:23:42;14.50;99.90
76567;DHT22;65428;53.194;6.132;2023-06-10T00:26:07;14.50;99.90
76567;DHT22;65428;53.194;6.132;2023-06-10T00:28:33;14.40;99.90
76567;DHT22;65428;53.194;6.132;2023-06-10T00:30:59;14.40;99.90
76567;DHT22;65428;53.194;6.132;2023-06-10T00:33:25;14.30;99.90
76567;DHT22;65428;53.194;6.132;2023-06-10T00:35:51;14.40;99.90
76567;DHT22;65428;53.194;6.132;2023-06-10T00:38:17;14.20;99.90
76567;DHT22;65428;53.194;6.132;2023-06-10T00:40:42;14.20;99.90
76567;DHT22;65428;53.194;6.132;2023-06-10T00:43:08;14.20;99.90
76567;DHT22;65428;53.194;6.132;2023-06-10T00:45:34;14.10;99.90
76567;DHT22;65428;53.194;6.132;2023-06-10T00:48:01;14.10;99.90
76567;DHT22;65428;53.194;6.132;2023-06-10T00:50:27;14.00;99.90
76567;DHT22;65428;53.194;6.132;2023-06-10T00:52:54;14.70;99.90
76567;DHT22;65428;53.194;6.132;2023-06-10T00:55:20;14.00;99.90
76567;DHT22;65428;53.194;6.132;2023-06-10T00:57:46;13.90;99.90
76567;DHT22;65428;53.194;6.132;2023-06-10T01:00:14;13.90;99.90
76567;DHT22;65428;53.194;6.132;2023-06-10T01:02:41;13.90;99.90
76567;DHT22;65428;53.194;6.132;2023-06-10T01:05:08;14.10;99.90
76567;DHT22;65428;53.194;6.132;2023-06-10T01:07:47;13.80;99.90
76567;DHT22;65428;53.194;6.132;2023-06-10T01:12:59;13.70;99.90
76567;DHT22;65428;53.194;6.132;2023-06-10T01:15:31;13.60;99.90
76567;DHT22;65428;53.194;6.132;2023-06-10T01:17:58;13.70;99.90
76567;DHT22;65428;53.194;6.132;2023-06-10T01:20:29;13.50;99.90
76567;DHT22;65428;53.194;6.132;2023-06-10T01:22:55;13.50;99.90
76567;DHT22;65428;53.194;6.132;2023-06-10T01:25:23;13.40;99.90
76567;DHT22;65428;53.194;6.132;2023-06-10T01:28:08;13.40;99.90
76567;DHT22;65428;53.194;6.132;2023-06-10T01:33:26;13.30;99.90
76567;DHT22;65428;53.194;6.132;2023-06-10T01:35:57;13.30;99.90
76567;DHT22;65428;53.194;6.132;2023-06-10T01:38:25;13.30;99.90
76567;DHT22;65428;53.194;6.132;2023-06-10T01:40:53;13.20;99.90
76567;DHT22;65428;53.194;6.132;2023-06-10T01:43:21;13.20;99.90
76567;DHT22;65428;53.194;6.132;2023-06-10T01:45:47;13.10;99.90
76567;DHT22;65428;53.194;6.132;2023-06-10T01:48:12;13.10;99.90
76567;DHT22;65428;53.194;6.132;2023-06-10T01:50:38;13.30;99.90
76567;DHT22;65428;53.194;6.132;2023-06-10T01:53:04;13.10;99.90
76567;DHT22;65428;53.194;6.132;2023-06-10T01:55:31;13.10;99.90
76567;DHT22;65428;53.194;6.132;2023-06-10T01:57:56;13.00;99.90
76567;DHT22;65428;53.194;6.132;2023-06-10T02:00:22;13.00;99.90
76567;DHT22;65428;53.194;6.132;2023-06-10T02:02:47;13.00;99.90
76567;DHT22;65428;53.194;6.132;2023-06-10T02:05:13;13.00;99.90
76567;DHT22;65428;53.194;6.132;2023-06-10T02:07:39;13.00;99.90
76567;DHT22;65428;53.194;6.132;2023-06-10T02:10:06;12.90;99.90
76567;DHT22;65428;53.194;6.132;2023-06-10T02:12:31;12.90;99.90
76567;DHT22;65428;53.194;6.132;2023-06-10T02:14:57;12.90;99.90
76567;DHT22;65428;53.194;6.132;2023-06-10T02:17:23;12.80;99.90
76567;DHT22;65428;53.194;6.132;2023-06-10T02:19:49;12.90;99.90
76567;DHT22;65428;53.194;6.132;2023-06-10T02:22:23;12.90;99.90
76567;DHT22;65428;53.194;6.132;2023-06-10T02:24:49;12.80;99.90
76567;DHT22;65428;53.194;6.132;2023-06-10T02:27:15;12.80;99.90
76567;DHT22;65428;53.194;6.132;2023-06-10T02:29:41;12.90;99.90
76567;DHT22;65428;53.194;6.132;2023-06-10T02:32:07;12.90;99.90
76567;DHT22;65428;53.194;6.132;2023-06-10T02:34:33;12.90;99.90
76567;DHT22;65428;53.194;6.132;2023-06-10T02:36:59;12.80;99.90
76567;DHT22;65428;53.194;6.132;2023-06-10T02:39:25;12.80;99.90
76567;DHT22;65428;53.194;6.132;2023-06-10T02:41:50;12.80;99.90
76567;DHT22;65428;53.194;6.132;2023-06-10T02:44:18;12.80;99.90
76567;DHT22;65428;53.194;6.132;2023-06-10T02:46:44;12.90;99.90
76567;DHT22;65428;53.194;6.132;2023-06-10T02:49:09;13.00;99.90
76567;DHT22;65428;53.194;6.132;2023-06-10T02:51:35;12.70;99.90
76567;DHT22;65428;53.194;6.132;2023-06-10T02:54:01;12.70;99.90
76567;DHT22;65428;53.194;6.132;2023-06-10T02:56:27;12.70;99.90
76567;DHT22;65428;53.194;6.132;2023-06-10T02:58:53;12.70;99.90
76567;DHT22;65428;53.194;6.132;2023-06-10T03:01:18;12.70;99.90
76567;DHT22;65428;53.194;6.132;2023-06-10T03:03:44;12.80;99.90
76567;DHT22;65428;53.194;6.132;2023-06-10T03:06:12;12.50;99.90
76567;DHT22;65428;53.194;6.132;2023-06-10T03:08:38;12.50;99.90
76567;DHT22;65428;53.194;6.132;2023-06-10T03:11:04;12.50;99.90
76567;DHT22;65428;53.194;6.132;2023-06-10T03:13:30;12.50;99.90
76567;DHT22;65428;53.194;6.132;2023-06-10T03:15:55;12.40;99.90
76567;DHT22;65428;53.194;6.132;2023-06-10T03:18:25;12.40;99.90
76567;DHT22;65428;53.194;6.132;2023-06-10T03:20:51;12.40;99.90
76567;DHT22;65428;53.194;6.132;2023-06-10T03:23:17;12.40;99.90
76567;DHT22;65428;53.194;6.132;2023-06-10T03:25:44;12.30;99.90
76567;DHT22;65428;53.194;6.132;2023-06-10T03:28:09;12.60;99.90
76567;DHT22;65428;53.194;6.132;2023-06-10T03:30:37;12.30;99.90
76567;DHT22;65428;53.194;6.132;2023-06-10T03:33:03;12.30;99.90
76567;DHT22;65428;53.194;6.132;2023-06-10T03:35:29;12.30;99.90
76567;DHT22;65428;53.194;6.132;2023-06-10T03:37:55;12.30;99.90
76567;DHT22;65428;53.194;6.132;2023-06-10T03:40:20;12.30;99.90
76567;DHT22;65428;53.194;6.132;2023-06-10T03:42:46;12.30;99.90
76567;DHT22;65428;53.194;6.132;2023-06-10T03:45:12;12.30;99.90
76567;DHT22;65428;53.194;6.132;2023-06-10T03:47:38;12.30;99.90
76567;DHT22;65428;53.194;6.132;2023-06-10T03:50:04;12.60;99.90
76567;DHT22;65428;53.194;6.132;2023-06-10T03:52:30;12.30;99.90
76567;DHT22;65428;53.194;6.132;2023-06-10T03:54:56;12.40;99.90
76567;DHT22;65428;53.194;6.132;2023-06-10T03:57:21;12.80;99.90
76567;DHT22;65428;53.194;6.132;2023-06-10T03:59:47;12.40;99.90
76567;DHT22;65428;53.194;6.132;2023-06-10T04:02:13;12.40;99.90
76567;DHT22;65428;53.194;6.132;2023-06-10T04:04:38;12.50;99.90
76567;DHT22;65428;53.194;6.132;2023-06-10T04:07:04;12.50;99.90
76567;DHT22;65428;53.194;6.132;2023-06-10T04:09:30;12.50;99.90
76567;DHT22;65428;53.194;6.132;2023-06-10T04:11:57;12.60;99.90
76567;DHT22;65428;53.194;6.132;2023-06-10T04:14:22;12.70;99.90
76567;DHT22;65428;53.194;6.132;2023-06-10T04:16:49;12.80;99.90
76567;DHT22;65428;53.194;6.132;2023-06-10T04:19:15;12.70;99.90
76567;DHT22;65428;53.194;6.132;2023-06-10T04:21:42;12.80;99.90
76567;DHT22;65428;53.194;6.132;2023-06-10T04:24:07;12.90;99.90
76567;DHT22;65428;53.194;6.132;2023-06-10T04:26:35;13.00;99.90
76567;DHT22;65428;53.194;6.132;2023-06-10T04:29:01;13.10;99.90
76567;DHT22;65428;53.194;6.132;2023-06-10T04:31:26;13.20;99.90
76567;DHT22;65428;53.194;6.132;2023-06-10T04:33:53;13.30;99.90
76567;DHT22;65428;53.194;6.132;2023-06-10T04:36:19;13.30;99.90
76567;DHT22;65428;53.194;6.132;2023-06-10T04:38:44;13.90;99.90
76567;DHT22;65428;53.194;6.132;2023-06-10T04:41:11;13.60;99.90
76567;DHT22;65428;53.194;6.132;2023-06-10T04:43:36;13.80;99.90
76567;DHT22;65428;53.194;6.132;2023-06-10T04:46:02;14.20;99.90
76567;DHT22;65428;53.194;6.132;2023-06-10T04:48:28;14.30;99.90
76567;DHT22;65428;53.194;6.132;2023-06-10T04:50:53;14.20;99.90
76567;DHT22;65428;53.194;6.132;2023-06-10T04:53:19;14.50;99.90
76567;DHT22;65428;53.194;6.132;2023-06-10T04:55:45;14.50;99.90
76567;DHT22;65428;53.194;6.132;2023-06-10T04:58:11;14.60;99.90
76567;DHT22;65428;53.194;6.132;2023-06-10T05:00:37;14.80;99.90
76567;DHT22;65428;53.194;6.132;2023-06-10T05:03:03;14.90;99.90
76567;DHT22;65428;53.194;6.132;2023-06-10T05:05:28;15.20;99.90
76567;DHT22;65428;53.194;6.132;2023-06-10T05:07:54;15.20;99.90
76567;DHT22;65428;53.194;6.132;2023-06-10T05:10:19;15.50;99.90
76567;DHT22;65428;53.194;6.132;2023-06-10T05:12:45;15.40;99.90
76567;DHT22;65428;53.194;6.132;2023-06-10T05:15:11;15.60;99.90
76567;DHT22;65428;53.194;6.132;2023-06-10T05:17:37;15.70;99.90
76567;DHT22;65428;53.194;6.132;2023-06-10T05:20:03;16.00;99.90
76567;DHT22;65428;53.194;6.132;2023-06-10T05:22:28;16.00;99.90
76567;DHT22;65428;53.194;6.132;2023-06-10T05:24:57;16.10;99.90
76567;DHT22;65428;53.194;6.132;2023-06-10T05:27:23;16.30;99.90
76567;DHT22;65428;53.194;6.132;2023-06-10T05:29:49;16.30;99.90
76567;DHT22;65428;53.194;6.132;2023-06-10T05:32:17;16.50;99.90
76567;DHT22;65428;53.194;6.132;2023-06-10T05:34:43;16.60;99.90
76567;DHT22;65428;53.194;6.132;2023-06-10T05:37:08;16.70;99.90
76567;DHT22;65428;53.194;6.132;2023-06-10T05:39:35;16.90;99.90
76567;DHT22;65428;53.194;6.132;2023-06-10T05:42:04;16.90;99.90
76567;DHT22;65428;53.194;6.132;2023-06-10T05:44:30;17.00;99.90
76567;DHT22;65428;53.194;6.132;2023-06-10T05:46:55;17.20;99.90
76567;DHT22;65428;53.194;6.132;2023-06-10T05:49:21;17.30;99.90
76567;DHT22;65428;53.194;6.132;2023-06-10T05:51:46;17.40;99.90
76567;DHT22;65428;53.194;6.132;2023-06-10T05:54:12;17.60;99.90
76567;DHT22;65428;53.194;6.132;2023-06-10T05:56:37;17.60;99.90
76567;DHT22;65428;53.194;6.132;2023-06-10T05:59:03;17.80;99.90
76567;DHT22;65428;53.194;6.132;2023-06-10T06:01:29;18.10;99.90
76567;DHT22;65428;53.194;6.132;2023-06-10T06:03:54;18.10;99.90
76567;DHT22;65428;53.194;6.132;2023-06-10T06:06:20;18.00;99.90
76567;DHT22;65428;53.194;6.132;2023-06-10T06:08:46;18.20;99.90
76567;DHT22;65428;53.194;6.132;2023-06-10T06:11:12;18.50;99.90
76567;DHT22;65428;53.194;6.132;2023-06-10T06:13:37;18.50;99.90
76567;DHT22;65428;53.194;6.132;2023-06-10T06:16:03;18.50;99.90
76567;DHT22;65428;53.194;6.132;2023-06-10T06:18:28;18.60;99.90
76567;DHT22;65428;53.194;6.132;2023-06-10T06:20:54;18.70;99.90
76567;DHT22;65428;53.194;6.132;2023-06-10T06:23:20;18.70;99.90
76567;DHT22;65428;53.194;6.132;2023-06-10T06:25:45;18.80;99.90
76567;DHT22;65428;53.194;6.132;2023-06-10T06:28:11;18.90;99.90
76567;DHT22;65428;53.194;6.132;2023-06-10T06:30:36;19.50;99.90
76567;DHT22;65428;53.194;6.132;2023-06-10T06:33:02;19.20;99.90
76567;DHT22;65428;53.194;6.132;2023-06-10T06:35:30;19.30;99.90
76567;DHT22;65428;53.194;6.132;2023-06-10T06:37:56;19.40;99.90
76567;DHT22;65428;53.194;6.132;2023-06-10T06:40:24;19.60;99.90
76567;DHT22;65428;53.194;6.132;2023-06-10T06:42:49;19.50;99.90
76567;DHT22;65428;53.194;6.132;2023-06-10T06:45:15;19.60;99.90
76567;DHT22;65428;53.194;6.132;2023-06-10T06:47:41;19.60;99.90
76567;DHT22;65428;53.194;6.132;2023-06-10T06:50:07;19.80;99.90
76567;DHT22;65428;53.194;6.132;2023-06-10T06:52:32;19.90;99.90
76567;DHT22;65428;53.194;6.132;2023-06-10T06:54:58;20.10;99.90
76567;DHT22;65428;53.194;6.132;2023-06-10T06:57:23;19.90;99.90
76567;DHT22;65428;53.194;6.132;2023-06-10T06:59:49;20.10;99.90
76567;DHT22;65428;53.194;6.132;2023-06-10T07:02:15;20.20;99.90
76567;DHT22;65428;53.194;6.132;2023-06-10T07:04:40;20.20;99.90
76567;DHT22;65428;53.194;6.132;2023-06-10T07:07:07;20.40;99.90
76567;DHT22;65428;53.194;6.132;2023-06-10T07:09:34;20.40;99.90
76567;DHT22;65428;53.194;6.132;2023-06-10T07:12:00;20.40;99.90
76567;DHT22;65428;53.194;6.132;2023-06-10T07:14:26;20.50;99.90
76567;DHT22;65428;53.194;6.132;2023-06-10T07:16:51;20.90;99.90
76567;DHT22;65428;53.194;6.132;2023-06-10T07:19:17;20.70;99.90
76567;DHT22;65428;53.194;6.132;2023-06-10T07:21:42;20.80;99.90
76567;DHT22;65428;53.194;6.132;2023-06-10T07:24:08;20.90;99.90
76567;DHT22;65428;53.194;6.132;2023-06-10T07:26:34;21.30;99.90
76567;DHT22;65428;53.194;6.132;2023-06-10T07:28:59;21.00;99.90
76567;DHT22;65428;53.194;6.132;2023-06-10T07:31:25;21.10;99.90
76567;DHT22;65428;53.194;6.132;2023-06-10T07:33:50;21.30;99.90
76567;DHT22;65428;53.194;6.132;2023-06-10T07:36:16;21.60;99.90
76567;DHT22;65428;53.194;6.132;2023-06-10T07:38:41;21.50;99.90
76567;DHT22;65428;53.194;6.132;2023-06-10T07:41:08;21.60;99.90
76567;DHT22;65428;53.194;6.132;2023-06-10T07:43:34;21.70;99.90
76567;DHT22;65428;53.194;6.132;2023-06-10T07:46:00;21.80;99.90
76567;DHT22;65428;53.194;6.132;2023-06-10T07:48:25;21.70;99.90
76567;DHT22;65428;53.194;6.132;2023-06-10T07:50:52;21.80;99.90
76567;DHT22;65428;53.194;6.132;2023-06-10T07:53:17;21.80;99.90
76567;DHT22;65428;53.194;6.132;2023-06-10T07:55:43;21.90;99.90
76567;DHT22;65428;53.194;6.132;2023-06-10T07:58:09;22.40;99.90
76567;DHT22;65428;53.194;6.132;2023-06-10T08:00:35;22.50;99.90
76567;DHT22;65428;53.194;6.132;2023-06-10T08:03:01;22.60;99.90
76567;DHT22;65428;53.194;6.132;2023-06-10T08:05:26;22.40;97.40
76567;DHT22;65428;53.194;6.132;2023-06-10T08:07:52;22.40;97.10
76567;DHT22;65428;53.194;6.132;2023-06-10T08:10:18;22.60;97.70
76567;DHT22;65428;53.194;6.132;2023-06-10T08:12:43;22.60;96.00
76567;DHT22;65428;53.194;6.132;2023-06-10T08:15:09;22.70;94.60
76567;DHT22;65428;53.194;6.132;2023-06-10T08:17:35;22.70;94.50
76567;DHT22;65428;53.194;6.132;2023-06-10T08:20:01;23.00;96.30
76567;DHT22;65428;53.194;6.132;2023-06-10T08:22:27;22.90;97.90
76567;DHT22;65428;53.194;6.132;2023-06-10T08:24:54;23.00;94.40
76567;DHT22;65428;53.194;6.132;2023-06-10T08:27:21;23.20;95.70
76567;DHT22;65428;53.194;6.132;2023-06-10T08:29:47;23.20;91.50
76567;DHT22;65428;53.194;6.132;2023-06-10T08:32:12;23.30;93.30
76567;DHT22;65428;53.194;6.132;2023-06-10T08:34:38;23.30;89.80
76567;DHT22;65428;53.194;6.132;2023-06-10T08:37:04;23.40;91.60
76567;DHT22;65428;53.194;6.132;2023-06-10T08:39:30;23.30;94.00
76567;DHT22;65428;53.194;6.132;2023-06-10T08:42:23;23.40;92.90
76567;DHT22;65428;53.194;6.132;2023-06-10T08:44:54;23.50;85.50
76567;DHT22;65428;53.194;6.132;2023-06-10T08:47:25;23.50;82.70
76567;DHT22;65428;53.194;6.132;2023-06-10T08:49:51;23.70;89.40
76567;DHT22;65428;53.194;6.132;2023-06-10T08:52:20;23.70;81.50
76567;DHT22;65428;53.194;6.132;2023-06-10T08:54:52;23.70;85.90
76567;DHT22;65428;53.194;6.132;2023-06-10T08:57:20;23.80;83.40
76567;DHT22;65428;53.194;6.132;2023-06-10T08:59:48;23.90;83.90
76567;DHT22;65428;53.194;6.132;2023-06-10T09:02:15;24.00;81.60
76567;DHT22;65428;53.194;6.132;2023-06-10T09:04:44;24.00;80.00
76567;DHT22;65428;53.194;6.132;2023-06-10T09:07:11;24.20;81.30
76567;DHT22;65428;53.194;6.132;2023-06-10T09:09:37;24.20;79.10
76567;DHT22;65428;53.194;6.132;2023-06-10T09:12:04;24.30;73.00
76567;DHT22;65428;53.194;6.132;2023-06-10T09:14:30;24.40;86.30
76567;DHT22;65428;53.194;6.132;2023-06-10T09:16:55;24.60;83.20
76567;DHT22;65428;53.194;6.132;2023-06-10T09:19:25;24.70;82.80
76567;DHT22;65428;53.194;6.132;2023-06-10T09:21:52;24.70;65.80
76567;DHT22;65428;53.194;6.132;2023-06-10T09:24:18;24.90;74.50
76567;DHT22;65428;53.194;6.132;2023-06-10T09:26:44;25.00;73.60
76567;DHT22;65428;53.194;6.132;2023-06-10T09:29:11;25.10;69.00
76567;DHT22;65428;53.194;6.132;2023-06-10T09:31:38;25.20;64.00
76567;DHT22;65428;53.194;6.132;2023-06-10T09:34:25;25.30;59.90
76567;DHT22;65428;53.194;6.132;2023-06-10T09:36:51;25.30;64.50
76567;DHT22;65428;53.194;6.132;2023-06-10T09:39:18;25.40;59.50
76567;DHT22;65428;53.194;6.132;2023-06-10T09:41:45;25.50;65.30
76567;DHT22;65428;53.194;6.132;2023-06-10T09:44:19;25.60;65.70
76567;DHT22;65428;53.194;6.132;2023-06-10T09:46:46;25.80;64.90
76567;DHT22;65428;53.194;6.132;2023-06-10T09:49:12;25.90;68.40
76567;DHT22;65428;53.194;6.132;2023-06-10T09:51:51;26.30;62.50
76567;DHT22;65428;53.194;6.132;2023-06-10T09:54:17;26.10;63.10
76567;DHT22;65428;53.194;6.132;2023-06-10T09:56:47;26.60;59.30
76567;DHT22;65428;53.194;6.132;2023-06-10T09:59:13;26.60;57.60
76567;DHT22;65428;53.194;6.132;2023-06-10T10:01:39;26.70;62.00
76567;DHT22;65428;53.194;6.132;2023-06-10T10:04:04;26.90;60.00
76567;DHT22;65428;53.194;6.132;2023-06-10T10:06:30;27.00;66.70
76567;DHT22;65428;53.194;6.132;2023-06-10T10:08:56;27.50;56.40
76567;DHT22;65428;53.194;6.132;2023-06-10T10:11:22;27.50;53.80
76567;DHT22;65428;53.194;6.132;2023-06-10T10:13:50;27.60;54.00
76567;DHT22;65428;53.194;6.132;2023-06-10T10:16:46;27.70;54.10
76567;DHT22;65428;53.194;6.132;2023-06-10T10:19:20;27.80;55.10
76567;DHT22;65428;53.194;6.132;2023-06-10T10:21:56;28.10;53.70
76567;DHT22;65428;53.194;6.132;2023-06-10T10:24:32;28.30;50.90
76567;DHT22;65428;53.194;6.132;2023-06-10T10:27:01;28.50;48.20
76567;DHT22;65428;53.194;6.132;2023-06-10T10:29:37;28.70;49.00
76567;DHT22;65428;53.194;6.132;2023-06-10T10:32:04;28.90;47.00
76567;DHT22;65428;53.194;6.132;2023-06-10T10:34:41;29.20;47.90
76567;DHT22;65428;53.194;6.132;2023-06-10T10:37:08;29.50;45.50
76567;DHT22;65428;53.194;6.132;2023-06-10T10:39:36;29.70;44.20
76567;DHT22;65428;53.194;6.132;2023-06-10T10:42:03;29.80;44.20
76567;DHT22;65428;53.194;6.132;2023-06-10T10:44:30;30.00;44.50
76567;DHT22;65428;53.194;6.132;2023-06-10T10:46:56;30.30;45.20
76567;DHT22;65428;53.194;6.132;2023-06-10T10:49:27;30.50;43.50
76567;DHT22;65428;53.194;6.132;2023-06-10T10:52:01;30.80;40.70
76567;DHT22;65428;53.194;6.132;2023-06-10T10:54:31;31.00;40.00
76567;DHT22;65428;53.194;6.132;2023-06-10T10:57:13;31.30;40.80
76567;DHT22;65428;53.194;6.132;2023-06-10T11:05:04;32.20;36.60
76567;DHT22;65428;53.194;6.132;2023-06-10T11:07:32;32.20;37.60
76567;DHT22;65428;53.194;6.132;2023-06-10T11:09:59;32.30;34.60
76567;DHT22;65428;53.194;6.132;2023-06-10T11:12:26;32.40;38.50
76567;DHT22;65428;53.194;6.132;2023-06-10T11:15:04;32.70;38.10
76567;DHT22;65428;53.194;6.132;2023-06-10T11:17:30;32.90;36.80
76567;DHT22;65428;53.194;6.132;2023-06-10T11:19:58;33.00;35.30
76567;DHT22;65428;53.194;6.132;2023-06-10T11:22:24;33.20;37.80
76567;DHT22;65428;53.194;6.132;2023-06-10T11:24:50;33.40;35.70
76567;DHT22;65428;53.194;6.132;2023-06-10T11:27:23;33.60;37.10
76567;DHT22;65428;53.194;6.132;2023-06-10T11:30:19;33.70;36.00
76567;DHT22;65428;53.194;6.132;2023-06-10T11:32:45;33.80;33.90
76567;DHT22;65428;53.194;6.132;2023-06-10T11:35:17;33.60;35.10
76567;DHT22;65428;53.194;6.132;2023-06-10T11:37:43;33.60;35.50
76567;DHT22;65428;53.194;6.132;2023-06-10T11:40:09;33.70;34.90
76567;DHT22;65428;53.194;6.132;2023-06-10T11:42:40;33.80;35.30
76567;DHT22;65428;53.194;6.132;2023-06-10T11:45:06;34.00;35.10
76567;DHT22;65428;53.194;6.132;2023-06-10T11:47:33;34.10;32.10
76567;DHT22;65428;53.194;6.132;2023-06-10T11:49:59;33.90;33.50
76567;DHT22;65428;53.194;6.132;2023-06-10T11:52:31;33.90;34.20
76567;DHT22;65428;53.194;6.132;2023-06-10T11:54:59;33.90;33.10
76567;DHT22;65428;53.194;6.132;2023-06-10T11:57:24;33.90;33.60
76567;DHT22;65428;53.194;6.132;2023-06-10T11:59:50;34.00;33.60
76567;DHT22;65428;53.194;6.132;2023-06-10T12:02:16;34.20;33.70
76567;DHT22;65428;53.194;6.132;2023-06-10T12:04:42;34.40;32.30
76567;DHT22;65428;53.194;6.132;2023-06-10T12:07:08;34.50;34.90
76567;DHT22;65428;53.194;6.132;2023-06-10T12:09:33;34.40;32.30
76567;DHT22;65428;53.194;6.132;2023-06-10T12:12:03;34.50;32.30
76567;DHT22;65428;53.194;6.132;2023-06-10T12:14:57;34.80;32.90
76567;DHT22;65428;53.194;6.132;2023-06-10T12:20:00;35.40;32.30
76567;DHT22;65428;53.194;6.132;2023-06-10T12:22:26;35.50;31.80
76567;DHT22;65428;53.194;6.132;2023-06-10T12:25:05;35.30;30.40
76567;DHT22;65428;53.194;6.132;2023-06-10T12:27:33;35.10;31.60
76567;DHT22;65428;53.194;6.132;2023-06-10T12:30:01;35.30;32.20
76567;DHT22;65428;53.194;6.132;2023-06-10T12:35:05;35.70;30.40
76567;DHT22;65428;53.194;6.132;2023-06-10T12:37:31;36.00;34.50
76567;DHT22;65428;53.194;6.132;2023-06-10T12:40:02;36.20;36.30
76567;DHT22;65428;53.194;6.132;2023-06-10T12:42:32;36.30;36.80
76567;DHT22;65428;53.194;6.132;2023-06-10T12:44:59;36.40;37.20
76567;DHT22;65428;53.194;6.132;2023-06-10T12:47:35;36.60;36.00
76567;DHT22;65428;53.194;6.132;2023-06-10T12:50:02;36.70;38.40
76567;DHT22;65428;53.194;6.132;2023-06-10T12:52:28;36.60;37.30
76567;DHT22;65428;53.194;6.132;2023-06-10T12:54:54;36.70;37.70
76567;DHT22;65428;53.194;6.132;2023-06-10T12:57:21;36.80;38.00
76567;DHT22;65428;53.194;6.132;2023-06-10T12:59:47;36.70;37.50
76567;DHT22;65428;53.194;6.132;2023-06-10T13:02:18;36.70;37.00
76567;DHT22;65428;53.194;6.132;2023-06-10T13:04:46;36.70;39.40
76567;DHT22;65428;53.194;6.132;2023-06-10T13:07:12;36.80;37.60
76567;DHT22;65428;53.194;6.132;2023-06-10T13:09:37;36.70;37.20
76567;DHT22;65428;53.194;6.132;2023-06-10T13:12:03;36.70;37.40
76567;DHT22;65428;53.194;6.132;2023-06-10T13:14:29;36.70;37.60
76567;DHT22;65428;53.194;6.132;2023-06-10T13:16:55;36.50;37.50
76567;DHT22;65428;53.194;6.132;2023-06-10T13:19:21;36.40;38.60
76567;DHT22;65428;53.194;6.132;2023-06-10T13:21:51;36.20;36.50
76567;DHT22;65428;53.194;6.132;2023-06-10T13:24:17;35.50;39.20
76567;DHT22;65428;53.194;6.132;2023-06-10T13:26:42;35.60;39.50
76567;DHT22;65428;53.194;6.132;2023-06-10T13:29:08;35.80;38.60
76567;DHT22;65428;53.194;6.132;2023-06-10T13:31:39;36.00;38.20
76567;DHT22;65428;53.194;6.132;2023-06-10T13:34:05;36.30;38.70
76567;DHT22;65428;53.194;6.132;2023-06-10T13:36:31;36.50;39.20
76567;DHT22;65428;53.194;6.132;2023-06-10T13:38:57;36.50;37.10
76567;DHT22;65428;53.194;6.132;2023-06-10T13:41:23;36.40;38.10
76567;DHT22;65428;53.194;6.132;2023-06-10T13:43:48;36.60;38.10
76567;DHT22;65428;53.194;6.132;2023-06-10T13:46:14;36.60;37.60
76567;DHT22;65428;53.194;6.132;2023-06-10T13:48:40;36.20;37.80
76567;DHT22;65428;53.194;6.132;2023-06-10T13:51:08;36.20;39.50
76567;DHT22;65428;53.194;6.132;2023-06-10T13:53:34;36.30;38.80
76567;DHT22;65428;53.194;6.132;2023-06-10T13:56:01;35.90;38.70
76567;DHT22;65428;53.194;6.132;2023-06-10T13:58:26;35.90;39.80
76567;DHT22;65428;53.194;6.132;2023-06-10T14:00:52;36.30;39.50
76567;DHT22;65428;53.194;6.132;2023-06-10T14:03:18;36.80;38.60
76567;DHT22;65428;53.194;6.132;2023-06-10T14:05:44;37.00;38.30
76567;DHT22;65428;53.194;6.132;2023-06-10T14:08:09;37.40;38.00
76567;DHT22;65428;53.194;6.132;2023-06-10T14:10:35;37.00;36.80
76567;DHT22;65428;53.194;6.132;2023-06-10T14:13:01;37.20;37.20
76567;DHT22;65428;53.194;6.132;2023-06-10T14:15:26;37.20;37.10
76567;DHT22;65428;53.194;6.132;2023-06-10T14:17:52;37.30;38.20
76567;DHT22;65428;53.194;6.132;2023-06-10T14:20:17;37.60;38.00
76567;DHT22;65428;53.194;6.132;2023-06-10T14:22:43;37.90;37.30
76567;DHT22;65428;53.194;6.132;2023-06-10T14:25:09;37.90;36.00
76567;DHT22;65428;53.194;6.132;2023-06-10T14:27:36;37.40;36.30
76567;DHT22;65428;53.194;6.132;2023-06-10T14:30:02;36.50;36.50
76567;DHT22;65428;53.194;6.132;2023-06-10T14:32:29;35.50;36.80
76567;DHT22;65428;53.194;6.132;2023-06-10T14:34:54;34.50;40.20
76567;DHT22;65428;53.194;6.132;2023-06-10T14:37:20;33.90;39.80
76567;DHT22;65428;53.194;6.132;2023-06-10T14:39:46;33.10;44.20
76567;DHT22;65428;53.194;6.132;2023-06-10T14:42:12;32.20;43.50
76567;DHT22;65428;53.194;6.132;2023-06-10T14:44:37;31.50;44.50
76567;DHT22;65428;53.194;6.132;2023-06-10T14:47:03;31.20;46.90
76567;DHT22;65428;53.194;6.132;2023-06-10T14:49:29;30.80;46.50
76567;DHT22;65428;53.194;6.132;2023-06-10T14:51:54;30.50;48.10
76567;DHT22;65428;53.194;6.132;2023-06-10T14:54:20;30.30;50.00
76567;DHT22;65428;53.194;6.132;2023-06-10T14:56:45;30.00;50.90
76567;DHT22;65428;53.194;6.132;2023-06-10T14:59:11;29.60;52.60
76567;DHT22;65428;53.194;6.132;2023-06-10T15:01:37;29.40;58.80
76567;DHT22;65428;53.194;6.132;2023-06-10T15:04:02;29.20;59.20
76567;DHT22;65428;53.194;6.132;2023-06-10T15:06:28;29.10;60.50
76567;DHT22;65428;53.194;6.132;2023-06-10T15:08:53;29.00;64.60
76567;DHT22;65428;53.194;6.132;2023-06-10T15:11:19;28.90;63.50
76567;DHT22;65428;53.194;6.132;2023-06-10T15:13:46;29.00;65.60
76567;DHT22;65428;53.194;6.132;2023-06-10T15:16:11;29.00;68.20
76567;DHT22;65428;53.194;6.132;2023-06-10T15:18:38;29.10;68.80
76567;DHT22;65428;53.194;6.132;2023-06-10T15:21:03;28.90;64.20
76567;DHT22;65428;53.194;6.132;2023-06-10T15:23:29;28.60;68.90
76567;DHT22;65428;53.194;6.132;2023-06-10T15:25:54;28.50;74.80
76567;DHT22;65428;53.194;6.132;2023-06-10T15:28:20;28.60;79.60
76567;DHT22;65428;53.194;6.132;2023-06-10T15:30:46;28.40;75.30
76567;DHT22;65428;53.194;6.132;2023-06-10T15:33:11;28.30;78.60
76567;DHT22;65428;53.194;6.132;2023-06-10T15:35:37;28.10;75.50
76567;DHT22;65428;53.194;6.132;2023-06-10T15:38:02;28.00;84.80
76567;DHT22;65428;53.194;6.132;2023-06-10T15:40:28;27.90;81.70
76567;DHT22;65428;53.194;6.132;2023-06-10T15:42:54;28.10;89.30
76567;DHT22;65428;53.194;6.132;2023-06-10T15:45:20;28.10;76.90